sensor_id;sensor_type;location;lat;lon;timestamp;P1;durP1;ratioP1;P2;durP2;ratioP2
80249;SDS011;69561;37.974;23.708;2023-05-10T00:01:05;4.10;;;1.90;;
80249;SDS011;69561;37.974;23.708;2023-05-10T00:03:30;3.25;;;2.03;;
80249;SDS011;69561;37.974;23.708;2023-05-10T00:05:56;3.80;;;2.08;;
80249;SDS011;69561;37.974;23.708;2023-05-10T00:08:22;3.40;;;1.90;;
80249;SDS011;69561;37.974;23.708;2023-05-10T00:10:48;3.67;;;1.92;;
80249;SDS011;69561;37.974;23.708;2023-05-10T00:13:14;3.20;;;1.98;;
80249;SDS011;69561;37.974;23.708;2023-05-10T00:15:40;4.35;;;2.20;;
80249;SDS011;69561;37.974;23.708;2023-05-10T00:18:05;4.35;;;2.30;;
80249;SDS011;69561;37.974;23.708;2023-05-10T00:20:31;2.85;;;2.08;;
80249;SDS011;69561;37.974;23.708;2023-05-10T00:22:57;3.40;;;1.90;;
80249;SDS011;69561;37.974;23.708;2023-05-10T00:25:23;3.42;;;1.92;;
80249;SDS011;69561;37.974;23.708;2023-05-10T00:27:48;8.98;;;2.92;;
80249;SDS011;69561;37.974;23.708;2023-05-10T00:30:14;4.10;;;2.10;;
80249;SDS011;69561;37.974;23.708;2023-05-10T00:32:40;4.82;;;2.10;;
80249;SDS011;69561;37.974;23.708;2023-05-10T00:35:06;2.80;;;2.10;;
80249;SDS011;69561;37.974;23.708;2023-05-10T00:37:33;3.28;;;2.08;;
80249;SDS011;69561;37.974;23.708;2023-05-10T00:39:58;4.55;;;1.80;;
80249;SDS011;69561;37.974;23.708;2023-05-10T00:42:24;3.22;;;2.00;;
80249;SDS011;69561;37.974;23.708;2023-05-10T00:44:50;4.35;;;2.38;;
80249;SDS011;69561;37.974;23.708;2023-05-10T00:47:16;3.17;;;2.22;;
80249;SDS011;69561;37.974;23.708;2023-05-10T00:49:42;2.95;;;1.85;;
80249;SDS011;69561;37.974;23.708;2023-05-10T00:52:09;5.15;;;2.03;;
80249;SDS011;69561;37.974;23.708;2023-05-10T00:54:35;3.92;;;2.13;;
80249;SDS011;69561;37.974;23.708;2023-05-10T00:57:01;5.45;;;2.15;;
80249;SDS011;69561;37.974;23.708;2023-05-10T00:59:27;3.28;;;1.88;;
80249;SDS011;69561;37.974;23.708;2023-05-10T01:01:53;3.28;;;1.90;;
80249;SDS011;69561;37.974;23.708;2023-05-10T01:04:19;6.03;;;2.00;;
80249;SDS011;69561;37.974;23.708;2023-05-10T01:06:50;7.35;;;2.00;;
80249;SDS011;69561;37.974;23.708;2023-05-10T01:09:19;5.50;;;2.00;;
80249;SDS011;69561;37.974;23.708;2023-05-10T01:11:46;5.22;;;1.90;;
80249;SDS011;69561;37.974;23.708;2023-05-10T01:14:13;4.97;;;2.03;;
80249;SDS011;69561;37.974;23.708;2023-05-10T01:16:42;6.15;;;1.90;;
80249;SDS011;69561;37.974;23.708;2023-05-10T01:19:12;2.58;;;1.90;;
80249;SDS011;69561;37.974;23.708;2023-05-10T01:32:21;3.83;;;1.70;;
80249;SDS011;69561;37.974;23.708;2023-05-10T01:38:04;3.03;;;1.67;;
80249;SDS011;69561;37.974;23.708;2023-05-10T01:43:41;3.20;;;2.05;;
80249;SDS011;69561;37.974;23.708;2023-05-10T01:46:32;3.22;;;1.65;;
80249;SDS011;69561;37.974;23.708;2023-05-10T01:49:03;4.13;;;1.70;;
80249;SDS011;69561;37.974;23.708;2023-05-10T01:51:38;3.80;;;1.50;;
80249;SDS011;69561;37.974;23.708;2023-05-10T01:54:12;2.67;;;1.60;;
80249;SDS011;69561;37.974;23.708;2023-05-10T01:56:40;4.45;;;1.85;;
80249;SDS011;69561;37.974;23.708;2023-05-10T01:59:11;2.88;;;1.45;;
80249;SDS011;69561;37.974;23.708;2023-05-10T02:01:40;3.30;;;1.50;;
80249;SDS011;69561;37.974;23.708;2023-05-10T02:04:07;4.55;;;1.77;;
80249;SDS011;69561;37.974;23.708;2023-05-10T02:06:34;3.55;;;1.40;;
80249;SDS011;69561;37.974;23.708;2023-05-10T02:09:02;4.85;;;1.50;;
80249;SDS011;69561;37.974;23.708;2023-05-10T02:11:29;2.35;;;1.40;;
80249;SDS011;69561;37.974;23.708;2023-05-10T02:13:55;4.03;;;1.75;;
80249;SDS011;69561;37.974;23.708;2023-05-10T02:16:23;2.85;;;1.50;;
80249;SDS011;69561;37.974;23.708;2023-05-10T02:18:51;2.72;;;1.38;;
80249;SDS011;69561;37.974;23.708;2023-05-10T02:21:19;2.80;;;1.33;;
80249;SDS011;69561;37.974;23.708;2023-05-10T02:23:46;6.30;;;1.55;;
80249;SDS011;69561;37.974;23.708;2023-05-10T02:26:15;2.83;;;1.30;;
80249;SDS011;69561;37.974;23.708;2023-05-10T02:28:43;2.33;;;1.30;;
80249;SDS011;69561;37.974;23.708;2023-05-10T02:31:09;4.18;;;1.73;;
80249;SDS011;69561;37.974;23.708;2023-05-10T02:33:36;3.00;;;1.33;;
80249;SDS011;69561;37.974;23.708;2023-05-10T02:36:05;2.63;;;1.13;;
80249;SDS011;69561;37.974;23.708;2023-05-10T02:38:32;3.28;;;1.58;;
80249;SDS011;69561;37.974;23.708;2023-05-10T02:40:59;5.30;;;1.50;;
80249;SDS011;69561;37.974;23.708;2023-05-10T02:43:26;2.33;;;1.27;;
80249;SDS011;69561;37.974;23.708;2023-05-10T02:45:55;2.83;;;0.82;;
80249;SDS011;69561;37.974;23.708;2023-05-10T02:48:20;2.90;;;1.13;;
80249;SDS011;69561;37.974;23.708;2023-05-10T02:50:46;2.58;;;1.13;;
80249;SDS011;69561;37.974;23.708;2023-05-10T02:53:18;2.92;;;1.38;;
80249;SDS011;69561;37.974;23.708;2023-05-10T02:55:49;3.10;;;1.70;;
80249;SDS011;69561;37.974;23.708;2023-05-10T02:58:16;4.55;;;1.33;;
80249;SDS011;69561;37.974;23.708;2023-05-10T03:00:44;2.92;;;1.27;;
80249;SDS011;69561;37.974;23.708;2023-05-10T03:03:11;3.85;;;1.20;;
80249;SDS011;69561;37.974;23.708;2023-05-10T03:05:37;4.07;;;1.30;;
80249;SDS011;69561;37.974;23.708;2023-05-10T03:08:02;2.97;;;1.20;;
80249;SDS011;69561;37.974;23.708;2023-05-10T03:10:29;3.17;;;1.35;;
80249;SDS011;69561;37.974;23.708;2023-05-10T03:15:47;2.67;;;1.17;;
80249;SDS011;69561;37.974;23.708;2023-05-10T03:18:37;3.38;;;1.20;;
80249;SDS011;69561;37.974;23.708;2023-05-10T03:21:10;4.68;;;1.40;;
80249;SDS011;69561;37.974;23.708;2023-05-10T03:26:08;2.60;;;1.30;;
80249;SDS011;69561;37.974;23.708;2023-05-10T03:28:34;3.80;;;1.40;;
80249;SDS011;69561;37.974;23.708;2023-05-10T03:31:02;2.50;;;1.25;;
80249;SDS011;69561;37.974;23.708;2023-05-10T03:33:30;3.22;;;1.40;;
80249;SDS011;69561;37.974;23.708;2023-05-10T03:35:56;3.35;;;1.38;;
80249;SDS011;69561;37.974;23.708;2023-05-10T03:38:22;3.33;;;1.40;;
80249;SDS011;69561;37.974;23.708;2023-05-10T03:40:48;6.75;;;1.33;;
80249;SDS011;69561;37.974;23.708;2023-05-10T03:43:13;3.38;;;1.25;;
80249;SDS011;69561;37.974;23.708;2023-05-10T03:45:39;5.20;;;1.23;;
80249;SDS011;69561;37.974;23.708;2023-05-10T03:48:05;4.10;;;1.35;;
80249;SDS011;69561;37.974;23.708;2023-05-10T03:50:31;2.83;;;1.30;;
80249;SDS011;69561;37.974;23.708;2023-05-10T03:52:56;3.10;;;1.13;;
80249;SDS011;69561;37.974;23.708;2023-05-10T03:55:22;2.22;;;1.15;;
80249;SDS011;69561;37.974;23.708;2023-05-10T03:57:48;3.70;;;1.20;;
80249;SDS011;69561;37.974;23.708;2023-05-10T04:00:14;2.38;;;1.20;;
80249;SDS011;69561;37.974;23.708;2023-05-10T04:02:40;2.58;;;1.00;;
80249;SDS011;69561;37.974;23.708;2023-05-10T04:05:06;4.32;;;1.20;;
80249;SDS011;69561;37.974;23.708;2023-05-10T04:07:32;3.63;;;1.50;;
80249;SDS011;69561;37.974;23.708;2023-05-10T04:09:58;2.58;;;1.20;;
80249;SDS011;69561;37.974;23.708;2023-05-10T04:12:24;2.20;;;1.20;;
80249;SDS011;69561;37.974;23.708;2023-05-10T04:14:50;2.60;;;1.40;;
80249;SDS011;69561;37.974;23.708;2023-05-10T04:17:16;3.38;;;1.20;;
80249;SDS011;69561;37.974;23.708;2023-05-10T04:19:41;5.18;;;1.50;;
80249;SDS011;69561;37.974;23.708;2023-05-10T04:22:07;21.13;;;2.47;;
80249;SDS011;69561;37.974;23.708;2023-05-10T04:24:33;27.05;;;2.28;;
80249;SDS011;69561;37.974;23.708;2023-05-10T04:26:59;16.75;;;2.03;;
80249;SDS011;69561;37.974;23.708;2023-05-10T04:29:25;14.35;;;1.75;;
80249;SDS011;69561;37.974;23.708;2023-05-10T04:31:52;9.77;;;1.60;;
80249;SDS011;69561;37.974;23.708;2023-05-10T04:34:18;9.02;;;1.70;;
80249;SDS011;69561;37.974;23.708;2023-05-10T04:36:46;17.35;;;2.22;;
80249;SDS011;69561;37.974;23.708;2023-05-10T04:39:11;13.43;;;2.13;;
80249;SDS011;69561;37.974;23.708;2023-05-10T04:41:38;11.70;;;1.55;;
80249;SDS011;69561;37.974;23.708;2023-05-10T04:44:04;9.73;;;1.67;;
80249;SDS011;69561;37.974;23.708;2023-05-10T04:46:30;9.43;;;1.38;;
80249;SDS011;69561;37.974;23.708;2023-05-10T04:48:55;11.48;;;1.60;;
80249;SDS011;69561;37.974;23.708;2023-05-10T04:51:21;6.97;;;1.38;;
80249;SDS011;69561;37.974;23.708;2023-05-10T04:53:47;6.60;;;1.40;;
80249;SDS011;69561;37.974;23.708;2023-05-10T04:56:12;6.43;;;1.70;;
80249;SDS011;69561;37.974;23.708;2023-05-10T04:58:38;9.43;;;1.45;;
80249;SDS011;69561;37.974;23.708;2023-05-10T05:01:05;4.60;;;1.48;;
80249;SDS011;69561;37.974;23.708;2023-05-10T05:03:34;4.20;;;1.10;;
80249;SDS011;69561;37.974;23.708;2023-05-10T05:06:00;8.02;;;1.35;;
80249;SDS011;69561;37.974;23.708;2023-05-10T05:08:26;4.57;;;1.50;;
80249;SDS011;69561;37.974;23.708;2023-05-10T05:10:52;3.40;;;1.50;;
80249;SDS011;69561;37.974;23.708;2023-05-10T05:13:17;4.97;;;1.60;;
80249;SDS011;69561;37.974;23.708;2023-05-10T05:15:43;7.53;;;1.33;;
80249;SDS011;69561;37.974;23.708;2023-05-10T05:18:09;4.80;;;1.50;;
80249;SDS011;69561;37.974;23.708;2023-05-10T05:20:35;4.97;;;1.50;;
80249;SDS011;69561;37.974;23.708;2023-05-10T05:23:01;3.20;;;1.77;;
80249;SDS011;69561;37.974;23.708;2023-05-10T05:25:26;3.83;;;1.38;;
80249;SDS011;69561;37.974;23.708;2023-05-10T05:27:52;3.80;;;1.40;;
80249;SDS011;69561;37.974;23.708;2023-05-10T05:30:18;4.35;;;1.45;;
80249;SDS011;69561;37.974;23.708;2023-05-10T05:32:44;5.55;;;1.50;;
80249;SDS011;69561;37.974;23.708;2023-05-10T05:35:09;2.55;;;1.20;;
80249;SDS011;69561;37.974;23.708;2023-05-10T05:37:36;2.00;;;1.00;;
80249;SDS011;69561;37.974;23.708;2023-05-10T05:40:02;4.75;;;1.10;;
80249;SDS011;69561;37.974;23.708;2023-05-10T05:42:28;3.33;;;1.00;;
80249;SDS011;69561;37.974;23.708;2023-05-10T05:44:54;3.90;;;1.30;;
80249;SDS011;69561;37.974;23.708;2023-05-10T05:47:19;2.85;;;1.40;;
80249;SDS011;69561;37.974;23.708;2023-05-10T05:49:45;3.00;;;1.30;;
80249;SDS011;69561;37.974;23.708;2023-05-10T05:52:11;3.55;;;0.95;;
80249;SDS011;69561;37.974;23.708;2023-05-10T05:54:37;3.35;;;1.10;;
80249;SDS011;69561;37.974;23.708;2023-05-10T05:57:02;2.63;;;1.05;;
80249;SDS011;69561;37.974;23.708;2023-05-10T05:59:28;5.07;;;1.48;;
80249;SDS011;69561;37.974;23.708;2023-05-10T06:01:54;3.45;;;1.10;;
80249;SDS011;69561;37.974;23.708;2023-05-10T06:04:20;1.83;;;1.00;;
80249;SDS011;69561;37.974;23.708;2023-05-10T06:06:46;5.40;;;1.20;;
80249;SDS011;69561;37.974;23.708;2023-05-10T06:09:11;5.45;;;1.30;;
80249;SDS011;69561;37.974;23.708;2023-05-10T06:11:37;2.58;;;1.17;;
80249;SDS011;69561;37.974;23.708;2023-05-10T06:14:03;2.60;;;1.00;;
80249;SDS011;69561;37.974;23.708;2023-05-10T06:16:32;3.50;;;1.15;;
80249;SDS011;69561;37.974;23.708;2023-05-10T06:18:58;3.22;;;1.05;;
80249;SDS011;69561;37.974;23.708;2023-05-10T06:21:23;1.65;;;0.98;;
80249;SDS011;69561;37.974;23.708;2023-05-10T06:23:49;2.33;;;1.25;;
80249;SDS011;69561;37.974;23.708;2023-05-10T06:26:15;4.18;;;1.35;;
80249;SDS011;69561;37.974;23.708;2023-05-10T06:28:41;2.67;;;1.33;;
80249;SDS011;69561;37.974;23.708;2023-05-10T06:31:06;4.88;;;1.27;;
80249;SDS011;69561;37.974;23.708;2023-05-10T06:33:32;2.88;;;1.20;;
80249;SDS011;69561;37.974;23.708;2023-05-10T06:35:58;5.82;;;1.23;;
80249;SDS011;69561;37.974;23.708;2023-05-10T06:38:24;5.03;;;1.33;;
80249;SDS011;69561;37.974;23.708;2023-05-10T06:40:50;2.30;;;1.20;;
80249;SDS011;69561;37.974;23.708;2023-05-10T06:43:16;3.08;;;1.08;;
80249;SDS011;69561;37.974;23.708;2023-05-10T06:45:42;4.32;;;1.33;;
80249;SDS011;69561;37.974;23.708;2023-05-10T06:48:09;2.67;;;1.35;;
80249;SDS011;69561;37.974;23.708;2023-05-10T06:50:35;3.00;;;1.30;;
80249;SDS011;69561;37.974;23.708;2023-05-10T06:53:00;2.25;;;1.00;;
80249;SDS011;69561;37.974;23.708;2023-05-10T06:55:27;3.00;;;1.20;;
80249;SDS011;69561;37.974;23.708;2023-05-10T06:57:53;1.45;;;1.10;;
80249;SDS011;69561;37.974;23.708;2023-05-10T07:00:19;2.35;;;1.13;;
80249;SDS011;69561;37.974;23.708;2023-05-10T07:02:44;3.50;;;1.40;;
80249;SDS011;69561;37.974;23.708;2023-05-10T07:05:10;4.05;;;1.20;;
80249;SDS011;69561;37.974;23.708;2023-05-10T07:07:37;2.30;;;1.20;;
80249;SDS011;69561;37.974;23.708;2023-05-10T07:10:03;1.52;;;1.10;;
80249;SDS011;69561;37.974;23.708;2023-05-10T07:12:29;3.72;;;1.30;;
80249;SDS011;69561;37.974;23.708;2023-05-10T07:14:55;2.45;;;1.25;;
80249;SDS011;69561;37.974;23.708;2023-05-10T07:17:20;3.53;;;1.02;;
80249;SDS011;69561;37.974;23.708;2023-05-10T07:19:46;2.30;;;1.17;;
80249;SDS011;69561;37.974;23.708;2023-05-10T07:22:12;2.78;;;1.10;;
80249;SDS011;69561;37.974;23.708;2023-05-10T07:24:38;3.08;;;1.23;;
80249;SDS011;69561;37.974;23.708;2023-05-10T07:27:03;2.90;;;1.20;;
80249;SDS011;69561;37.974;23.708;2023-05-10T07:29:29;4.38;;;1.20;;
80249;SDS011;69561;37.974;23.708;2023-05-10T07:31:55;1.85;;;1.02;;
80249;SDS011;69561;37.974;23.708;2023-05-10T07:34:21;4.45;;;1.50;;
80249;SDS011;69561;37.974;23.708;2023-05-10T07:36:47;3.63;;;1.40;;
80249;SDS011;69561;37.974;23.708;2023-05-10T07:39:12;2.78;;;1.40;;
80249;SDS011;69561;37.974;23.708;2023-05-10T07:41:38;1.88;;;1.33;;
80249;SDS011;69561;37.974;23.708;2023-05-10T07:44:05;5.65;;;1.40;;
80249;SDS011;69561;37.974;23.708;2023-05-10T07:46:31;5.50;;;1.38;;
80249;SDS011;69561;37.974;23.708;2023-05-10T07:48:57;1.63;;;1.30;;
80249;SDS011;69561;37.974;23.708;2023-05-10T07:51:22;4.07;;;1.38;;
80249;SDS011;69561;37.974;23.708;2023-05-10T07:53:48;3.33;;;1.20;;
80249;SDS011;69561;37.974;23.708;2023-05-10T07:56:28;4.13;;;1.30;;
80249;SDS011;69561;37.974;23.708;2023-05-10T07:58:55;3.75;;;1.38;;
80249;SDS011;69561;37.974;23.708;2023-05-10T08:01:21;3.70;;;1.50;;
80249;SDS011;69561;37.974;23.708;2023-05-10T08:03:48;2.80;;;1.40;;
80249;SDS011;69561;37.974;23.708;2023-05-10T08:06:17;3.95;;;1.40;;
80249;SDS011;69561;37.974;23.708;2023-05-10T08:08:43;3.45;;;1.50;;
80249;SDS011;69561;37.974;23.708;2023-05-10T08:11:14;3.45;;;1.25;;
80249;SDS011;69561;37.974;23.708;2023-05-10T08:13:43;2.55;;;1.48;;
80249;SDS011;69561;37.974;23.708;2023-05-10T08:16:09;2.05;;;1.40;;
80249;SDS011;69561;37.974;23.708;2023-05-10T08:18:35;4.32;;;1.55;;
80249;SDS011;69561;37.974;23.708;2023-05-10T08:21:01;5.97;;;1.50;;
80249;SDS011;69561;37.974;23.708;2023-05-10T08:23:27;4.13;;;1.50;;
80249;SDS011;69561;37.974;23.708;2023-05-10T08:25:53;3.75;;;1.40;;
80249;SDS011;69561;37.974;23.708;2023-05-10T08:28:18;3.05;;;1.40;;
80249;SDS011;69561;37.974;23.708;2023-05-10T08:30:44;2.70;;;1.40;;
80249;SDS011;69561;37.974;23.708;2023-05-10T08:33:11;3.95;;;1.70;;
80249;SDS011;69561;37.974;23.708;2023-05-10T08:35:37;2.75;;;1.38;;
80249;SDS011;69561;37.974;23.708;2023-05-10T08:38:03;4.18;;;1.60;;
80249;SDS011;69561;37.974;23.708;2023-05-10T08:40:28;2.90;;;1.40;;
80249;SDS011;69561;37.974;23.708;2023-05-10T08:42:55;2.95;;;1.30;;
80249;SDS011;69561;37.974;23.708;2023-05-10T08:45:28;3.28;;;1.20;;
80249;SDS011;69561;37.974;23.708;2023-05-10T08:48:01;2.83;;;1.52;;
80249;SDS011;69561;37.974;23.708;2023-05-10T08:50:29;3.38;;;1.55;;
80249;SDS011;69561;37.974;23.708;2023-05-10T08:52:57;3.22;;;1.33;;
80249;SDS011;69561;37.974;23.708;2023-05-10T08:55:26;2.95;;;1.20;;
80249;SDS011;69561;37.974;23.708;2023-05-10T08:57:54;3.40;;;1.40;;
80249;SDS011;69561;37.974;23.708;2023-05-10T09:00:21;4.05;;;1.30;;
80249;SDS011;69561;37.974;23.708;2023-05-10T09:02:48;2.50;;;1.20;;
80249;SDS011;69561;37.974;23.708;2023-05-10T09:05:15;1.92;;;1.20;;
80249;SDS011;69561;37.974;23.708;2023-05-10T09:07:42;2.03;;;1.27;;
80249;SDS011;69561;37.974;23.708;2023-05-10T09:10:08;5.28;;;1.45;;
80249;SDS011;69561;37.974;23.708;2023-05-10T09:12:35;2.72;;;1.40;;
80249;SDS011;69561;37.974;23.708;2023-05-10T09:15:05;2.35;;;1.25;;
80249;SDS011;69561;37.974;23.708;2023-05-10T09:17:34;1.90;;;1.33;;
80249;SDS011;69561;37.974;23.708;2023-05-10T09:20:00;4.30;;;1.60;;
80249;SDS011;69561;37.974;23.708;2023-05-10T09:22:27;2.67;;;1.30;;
80249;SDS011;69561;37.974;23.708;2023-05-10T09:25:06;3.25;;;1.13;;
80249;SDS011;69561;37.974;23.708;2023-05-10T09:27:34;4.32;;;1.35;;
80249;SDS011;69561;37.974;23.708;2023-05-10T09:30:01;2.17;;;1.23;;
80249;SDS011;69561;37.974;23.708;2023-05-10T09:32:37;3.28;;;1.60;;
80249;SDS011;69561;37.974;23.708;2023-05-10T09:35:13;2.67;;;1.27;;
80249;SDS011;69561;37.974;23.708;2023-05-10T09:37:40;5.55;;;1.30;;
80249;SDS011;69561;37.974;23.708;2023-05-10T09:40:08;5.75;;;1.40;;
80249;SDS011;69561;37.974;23.708;2023-05-10T09:42:37;3.38;;;1.45;;
80249;SDS011;69561;37.974;23.708;2023-05-10T09:45:04;4.43;;;1.20;;
80249;SDS011;69561;37.974;23.708;2023-05-10T09:47:36;2.25;;;1.27;;
80249;SDS011;69561;37.974;23.708;2023-05-10T09:50:03;2.55;;;1.13;;
80249;SDS011;69561;37.974;23.708;2023-05-10T09:53:14;5.75;;;1.30;;
80249;SDS011;69561;37.974;23.708;2023-05-10T09:55:16;4.07;;;1.25;;
80249;SDS011;69561;37.974;23.708;2023-05-10T09:57:44;4.65;;;1.08;;
80249;SDS011;69561;37.974;23.708;2023-05-10T10:00:16;3.13;;;1.20;;
80249;SDS011;69561;37.974;23.708;2023-05-10T10:05:10;3.17;;;1.08;;
80249;SDS011;69561;37.974;23.708;2023-05-10T10:07:36;2.35;;;1.33;;
80249;SDS011;69561;37.974;23.708;2023-05-10T10:10:03;2.47;;;1.50;;
80249;SDS011;69561;37.974;23.708;2023-05-10T10:12:30;2.90;;;1.17;;
80249;SDS011;69561;37.974;23.708;2023-05-10T10:14:56;6.55;;;1.35;;
80249;SDS011;69561;37.974;23.708;2023-05-10T10:17:24;3.00;;;1.10;;
80249;SDS011;69561;37.974;23.708;2023-05-10T10:19:52;3.42;;;1.40;;
80249;SDS011;69561;37.974;23.708;2023-05-10T10:22:19;3.05;;;1.30;;
80249;SDS011;69561;37.974;23.708;2023-05-10T10:24:45;2.67;;;0.90;;
80249;SDS011;69561;37.974;23.708;2023-05-10T10:27:19;3.83;;;1.20;;
80249;SDS011;69561;37.974;23.708;2023-05-10T10:35:42;4.47;;;1.48;;
80249;SDS011;69561;37.974;23.708;2023-05-10T10:38:10;3.92;;;1.10;;
80249;SDS011;69561;37.974;23.708;2023-05-10T10:40:38;4.97;;;1.30;;
80249;SDS011;69561;37.974;23.708;2023-05-10T10:48:37;3.78;;;1.13;;
80249;SDS011;69561;37.974;23.708;2023-05-10T10:51:03;3.83;;;1.10;;
80249;SDS011;69561;37.974;23.708;2023-05-10T10:53:29;3.10;;;1.83;;
80249;SDS011;69561;37.974;23.708;2023-05-10T10:56:05;2.50;;;1.10;;
80249;SDS011;69561;37.974;23.708;2023-05-10T10:58:37;2.03;;;1.25;;
80249;SDS011;69561;37.974;23.708;2023-05-10T11:01:17;2.40;;;0.98;;
80249;SDS011;69561;37.974;23.708;2023-05-10T11:06:28;3.85;;;1.40;;
80249;SDS011;69561;37.974;23.708;2023-05-10T11:08:56;2.08;;;1.10;;
80249;SDS011;69561;37.974;23.708;2023-05-10T11:11:22;5.22;;;1.10;;
80249;SDS011;69561;37.974;23.708;2023-05-10T11:13:48;2.33;;;1.17;;
80249;SDS011;69561;37.974;23.708;2023-05-10T11:16:18;3.15;;;1.08;;
80249;SDS011;69561;37.974;23.708;2023-05-10T11:21:23;3.15;;;1.08;;
80249;SDS011;69561;37.974;23.708;2023-05-10T11:23:50;2.88;;;1.20;;
80249;SDS011;69561;37.974;23.708;2023-05-10T11:26:22;2.13;;;1.00;;
80249;SDS011;69561;37.974;23.708;2023-05-10T11:28:51;3.78;;;1.10;;
80249;SDS011;69561;37.974;23.708;2023-05-10T11:31:19;2.85;;;1.20;;
80249;SDS011;69561;37.974;23.708;2023-05-10T11:36:21;3.63;;;1.40;;
80249;SDS011;69561;37.974;23.708;2023-05-10T11:38:51;2.10;;;1.20;;
80249;SDS011;69561;37.974;23.708;2023-05-10T11:41:17;2.60;;;1.13;;
80249;SDS011;69561;37.974;23.708;2023-05-10T11:43:55;2.60;;;1.00;;
80249;SDS011;69561;37.974;23.708;2023-05-10T11:46:28;3.55;;;1.40;;
80249;SDS011;69561;37.974;23.708;2023-05-10T11:48:55;3.95;;;1.23;;
80249;SDS011;69561;37.974;23.708;2023-05-10T11:51:25;1.85;;;1.20;;
80249;SDS011;69561;37.974;23.708;2023-05-10T11:53:52;2.03;;;1.30;;
80249;SDS011;69561;37.974;23.708;2023-05-10T11:56:19;2.20;;;1.10;;
80249;SDS011;69561;37.974;23.708;2023-05-10T11:58:51;2.65;;;1.02;;
80249;SDS011;69561;37.974;23.708;2023-05-10T12:01:24;2.53;;;1.20;;
80249;SDS011;69561;37.974;23.708;2023-05-10T12:03:51;3.40;;;1.15;;
80249;SDS011;69561;37.974;23.708;2023-05-10T12:06:18;1.67;;;1.15;;
80249;SDS011;69561;37.974;23.708;2023-05-10T12:08:45;2.83;;;1.45;;
80249;SDS011;69561;37.974;23.708;2023-05-10T12:11:13;3.25;;;1.17;;
80249;SDS011;69561;37.974;23.708;2023-05-10T12:13:41;1.80;;;1.15;;
80249;SDS011;69561;37.974;23.708;2023-05-10T12:16:28;2.53;;;1.33;;
80249;SDS011;69561;37.974;23.708;2023-05-10T12:18:59;3.22;;;1.30;;
80249;SDS011;69561;37.974;23.708;2023-05-10T12:21:25;1.97;;;1.20;;
80249;SDS011;69561;37.974;23.708;2023-05-10T12:23:53;2.70;;;1.13;;
80249;SDS011;69561;37.974;23.708;2023-05-10T12:26:27;3.78;;;1.30;;
80249;SDS011;69561;37.974;23.708;2023-05-10T12:28:53;1.80;;;0.95;;
80249;SDS011;69561;37.974;23.708;2023-05-10T12:31:20;2.75;;;1.30;;
80249;SDS011;69561;37.974;23.708;2023-05-10T12:33:46;2.40;;;1.20;;
80249;SDS011;69561;37.974;23.708;2023-05-10T12:36:14;1.98;;;1.15;;
80249;SDS011;69561;37.974;23.708;2023-05-10T12:38:41;4.22;;;1.20;;
80249;SDS011;69561;37.974;23.708;2023-05-10T12:41:15;2.10;;;1.10;;
80249;SDS011;69561;37.974;23.708;2023-05-10T12:43:42;1.88;;;1.17;;
80249;SDS011;69561;37.974;23.708;2023-05-10T12:46:09;1.92;;;1.25;;
80249;SDS011;69561;37.974;23.708;2023-05-10T12:48:36;2.15;;;1.20;;
80249;SDS011;69561;37.974;23.708;2023-05-10T12:51:03;4.68;;;1.25;;
80249;SDS011;69561;37.974;23.708;2023-05-10T12:53:30;2.28;;;1.20;;
80249;SDS011;69561;37.974;23.708;2023-05-10T12:55:56;2.45;;;1.02;;
80249;SDS011;69561;37.974;23.708;2023-05-10T12:58:22;1.80;;;1.00;;
80249;SDS011;69561;37.974;23.708;2023-05-10T13:00:48;2.45;;;1.20;;
80249;SDS011;69561;37.974;23.708;2023-05-10T13:03:14;1.73;;;1.05;;
80249;SDS011;69561;37.974;23.708;2023-05-10T13:05:40;5.28;;;1.30;;
80249;SDS011;69561;37.974;23.708;2023-05-10T13:08:06;1.33;;;0.90;;
80249;SDS011;69561;37.974;23.708;2023-05-10T13:10:32;2.40;;;1.00;;
80249;SDS011;69561;37.974;23.708;2023-05-10T13:12:58;2.95;;;1.10;;
80249;SDS011;69561;37.974;23.708;2023-05-10T13:15:24;5.05;;;1.13;;
80249;SDS011;69561;37.974;23.708;2023-05-10T13:17:51;2.28;;;1.02;;
80249;SDS011;69561;37.974;23.708;2023-05-10T13:20:16;2.00;;;0.80;;
80249;SDS011;69561;37.974;23.708;2023-05-10T13:22:43;2.60;;;1.20;;
80249;SDS011;69561;37.974;23.708;2023-05-10T13:25:09;2.05;;;1.00;;
80249;SDS011;69561;37.974;23.708;2023-05-10T13:27:35;2.83;;;1.10;;
80249;SDS011;69561;37.974;23.708;2023-05-10T13:30:02;3.72;;;1.17;;
80249;SDS011;69561;37.974;23.708;2023-05-10T13:32:29;2.67;;;1.02;;
80249;SDS011;69561;37.974;23.708;2023-05-10T13:34:55;1.92;;;1.00;;
80249;SDS011;69561;37.974;23.708;2023-05-10T13:37:21;3.08;;;1.30;;
80249;SDS011;69561;37.974;23.708;2023-05-10T13:39:47;3.33;;;0.98;;
80249;SDS011;69561;37.974;23.708;2023-05-10T13:42:13;2.20;;;1.00;;
80249;SDS011;69561;37.974;23.708;2023-05-10T13:44:39;4.13;;;1.20;;
80249;SDS011;69561;37.974;23.708;2023-05-10T13:47:05;2.05;;;1.13;;
80249;SDS011;69561;37.974;23.708;2023-05-10T13:49:31;2.40;;;1.10;;
80249;SDS011;69561;37.974;23.708;2023-05-10T13:51:58;3.17;;;1.60;;
80249;SDS011;69561;37.974;23.708;2023-05-10T13:54:30;5.80;;;2.97;;
80249;SDS011;69561;37.974;23.708;2023-05-10T13:56:56;8.43;;;4.70;;
80249;SDS011;69561;37.974;23.708;2023-05-10T13:59:22;12.38;;;8.65;;
80249;SDS011;69561;37.974;23.708;2023-05-10T14:01:48;16.83;;;11.60;;
80249;SDS011;69561;37.974;23.708;2023-05-10T14:04:13;27.55;;;17.35;;
80249;SDS011;69561;37.974;23.708;2023-05-10T14:06:39;25.98;;;18.25;;
80249;SDS011;69561;37.974;23.708;2023-05-10T14:09:05;26.77;;;17.13;;
80249;SDS011;69561;37.974;23.708;2023-05-10T14:11:31;27.35;;;18.08;;
80249;SDS011;69561;37.974;23.708;2023-05-10T14:13:57;26.00;;;18.73;;
80249;SDS011;69561;37.974;23.708;2023-05-10T14:16:22;24.63;;;17.75;;
80249;SDS011;69561;37.974;23.708;2023-05-10T14:18:48;22.13;;;16.70;;
80249;SDS011;69561;37.974;23.708;2023-05-10T14:21:14;17.25;;;12.93;;
80249;SDS011;69561;37.974;23.708;2023-05-10T14:23:40;19.20;;;13.85;;
80249;SDS011;69561;37.974;23.708;2023-05-10T14:26:06;13.70;;;10.48;;
80249;SDS011;69561;37.974;23.708;2023-05-10T14:28:31;16.75;;;10.50;;
80249;SDS011;69561;37.974;23.708;2023-05-10T14:30:57;15.13;;;8.85;;
80249;SDS011;69561;37.974;23.708;2023-05-10T14:33:24;19.27;;;8.95;;
80249;SDS011;69561;37.974;23.708;2023-05-10T14:35:50;11.05;;;6.95;;
80249;SDS011;69561;37.974;23.708;2023-05-10T14:38:16;10.88;;;6.80;;
80249;SDS011;69561;37.974;23.708;2023-05-10T14:40:41;9.43;;;5.75;;
80249;SDS011;69561;37.974;23.708;2023-05-10T14:43:07;10.52;;;5.82;;
80249;SDS011;69561;37.974;23.708;2023-05-10T14:45:34;6.68;;;4.63;;
80249;SDS011;69561;37.974;23.708;2023-05-10T14:47:59;9.32;;;4.75;;
80249;SDS011;69561;37.974;23.708;2023-05-10T14:50:25;6.57;;;4.05;;
80249;SDS011;69561;37.974;23.708;2023-05-10T14:52:51;7.03;;;4.47;;
80249;SDS011;69561;37.974;23.708;2023-05-10T14:55:17;4.55;;;3.05;;
80249;SDS011;69561;37.974;23.708;2023-05-10T14:57:43;6.07;;;3.40;;
80249;SDS011;69561;37.974;23.708;2023-05-10T15:00:09;5.57;;;3.08;;
80249;SDS011;69561;37.974;23.708;2023-05-10T15:02:35;5.85;;;3.40;;
80249;SDS011;69561;37.974;23.708;2023-05-10T15:05:01;3.55;;;2.53;;
80249;SDS011;69561;37.974;23.708;2023-05-10T15:07:27;5.35;;;2.97;;
80249;SDS011;69561;37.974;23.708;2023-05-10T15:09:53;3.55;;;2.47;;
80249;SDS011;69561;37.974;23.708;2023-05-10T15:12:19;3.00;;;2.33;;
80249;SDS011;69561;37.974;23.708;2023-05-10T15:14:45;5.15;;;2.00;;
80249;SDS011;69561;37.974;23.708;2023-05-10T15:17:11;3.10;;;2.13;;